createdAt,value
2018-04-19T00:05:16.416Z,11.70
2018-04-19T00:05:17.531Z,11.00
2018-04-19T00:06:17.529Z,11.40
2018-04-19T00:07:17.531Z,12.50
2018-04-19T00:08:17.532Z,12.10
2018-04-19T00:09:17.537Z,10.90
2018-04-19T00:10:17.529Z,13.80
2018-04-19T00:11:17.526Z,12.10
2018-04-19T00:12:17.529Z,13.30
2018-04-19T00:13:17.536Z,11.80
2018-04-19T00:14:17.524Z,11.60
2018-04-19T00:15:17.524Z,13.30
2018-04-19T00:16:17.524Z,11.00
2018-04-19T00:17:17.523Z,11.90
2018-04-19T00:18:17.522Z,13.60
2018-04-19T00:19:17.520Z,11.40
2018-04-19T00:20:17.521Z,13.00
2018-04-19T00:21:17.521Z,12.40
2018-04-19T00:22:17.523Z,12.20
2018-04-19T00:23:17.522Z,15.70
2018-04-19T00:24:17.517Z,13.10
2018-04-19T00:25:17.516Z,11.00
2018-04-19T00:26:17.519Z,9.50
2018-04-19T00:27:17.519Z,14.90
2018-04-19T00:28:17.514Z,16.60
2018-04-19T00:29:17.515Z,11.10
2018-04-19T00:30:17.513Z,11.90
2018-04-19T00:31:17.559Z,11.10
2018-04-19T00:32:17.513Z,11.60
2018-04-19T00:33:17.512Z,11.10
2018-04-19T00:34:17.511Z,13.30
2018-04-19T00:35:17.511Z,12.80
2018-04-19T00:36:17.509Z,11.40
2018-04-19T00:37:17.510Z,10.50
2018-04-19T00:38:17.507Z,13.00
2018-04-19T00:39:17.507Z,12.80
2018-04-19T00:40:17.511Z,11.60
2018-04-19T00:41:17.511Z,9.90
2018-04-19T00:42:17.505Z,10.20
2018-04-19T00:43:17.505Z,10.60
2018-04-19T00:44:17.508Z,11.10
2018-04-19T00:45:17.508Z,10.10
2018-04-19T00:46:17.503Z,12.60
2018-04-19T00:47:17.501Z,11.40
2018-04-19T00:48:17.501Z,11.90
2018-04-19T00:49:17.500Z,10.80
2018-04-19T00:50:17.504Z,12.60
2018-04-19T00:51:17.498Z,10.10
2018-04-19T00:52:17.502Z,12.90
2018-04-19T00:53:17.497Z,10.40
2018-04-19T00:54:17.500Z,10.80
2018-04-19T00:55:17.499Z,11.30
2018-04-19T00:56:17.494Z,11.60
2018-04-19T00:57:17.494Z,12.80
2018-04-19T00:58:17.497Z,11.00
2018-04-19T00:59:17.496Z,10.70
2018-04-19T01:00:17.491Z,11.70
2018-04-19T01:01:17.497Z,10.40
2018-04-19T01:02:17.489Z,10.20
2018-04-19T01:03:17.489Z,11.70
2018-04-19T01:04:17.487Z,10.80
2018-04-19T01:05:17.487Z,11.60
2018-04-19T01:06:17.490Z,9.90
2018-04-19T01:07:17.489Z,10.00
2018-04-19T01:08:17.487Z,11.00
2018-04-19T01:09:17.483Z,11.10
2018-04-19T01:10:17.546Z,10.40
2018-04-19T01:11:17.481Z,10.40
2018-04-19T01:12:17.484Z,10.70
2018-04-19T01:13:17.485Z,11.70
2018-04-19T01:14:17.479Z,10.00
2018-04-19T01:15:17.478Z,10.90
2018-04-19T01:16:17.478Z,10.20
2018-04-19T01:17:17.477Z,10.60
2018-04-19T01:18:17.478Z,8.50
2018-04-19T01:19:17.478Z,12.60
2018-04-19T01:20:17.474Z,9.10
2018-04-19T01:21:17.475Z,10.20
2018-04-19T01:22:17.475Z,10.60
2018-04-19T01:23:17.470Z,9.00
2018-04-19T01:24:17.472Z,10.20
2018-04-19T01:25:17.477Z,9.80
2018-04-19T01:26:17.467Z,9.70
2018-04-19T01:27:17.467Z,9.70
2018-04-19T01:28:17.465Z,11.20
2018-04-19T01:29:17.464Z,12.00
2018-04-19T01:30:17.463Z,12.60
2018-04-19T01:31:17.462Z,10.50
2018-04-19T01:32:17.462Z,9.60
2018-04-19T01:33:17.461Z,10.20
2018-04-19T01:34:17.458Z,10.40
2018-04-19T01:35:17.457Z,9.70
2018-04-19T01:36:17.461Z,9.70
2018-04-19T01:37:17.459Z,10.20
2018-04-19T01:38:17.458Z,10.20
2018-04-19T01:39:17.457Z,9.10
2018-04-19T01:40:17.452Z,11.60
2018-04-19T01:41:17.451Z,9.60
2018-04-19T01:42:17.450Z,10.40
2018-04-19T01:43:17.448Z,9.80
2018-04-19T01:44:17.449Z,10.80
2018-04-19T01:45:17.448Z,9.80
2018-04-19T01:46:17.444Z,9.90
2018-04-19T01:47:17.445Z,12.40
2018-04-19T01:48:17.444Z,12.90
2018-04-19T01:49:17.442Z,10.80
2018-04-19T01:50:17.445Z,10.40
2018-04-19T01:51:17.443Z,10.40
2018-04-19T01:52:17.439Z,10.30
2018-04-19T01:53:17.438Z,10.50
2018-04-19T01:54:17.437Z,9.70
2018-04-19T01:55:17.434Z,8.90
2018-04-19T01:56:17.440Z,9.20
2018-04-19T01:57:17.437Z,10.40
2018-04-19T01:58:17.431Z,10.90
2018-04-19T01:59:17.430Z,11.70
2018-04-19T02:00:17.430Z,11.70
2018-04-19T02:01:17.429Z,9.70
2018-04-19T02:02:17.428Z,10.10
2018-04-19T02:03:17.426Z,10.00
2018-04-19T02:04:17.427Z,11.10
2018-04-19T02:05:17.425Z,11.80
2018-04-19T02:06:17.422Z,11.20
2018-04-19T02:07:17.429Z,11.50
2018-04-19T02:08:17.425Z,10.60
2018-04-19T02:09:17.423Z,12.10
2018-04-19T02:10:17.418Z,9.70
2018-04-19T02:11:17.421Z,10.80
2018-04-19T02:12:17.416Z,9.30
2018-04-19T02:13:17.415Z,10.30
2018-04-19T02:14:17.413Z,9.70
2018-04-19T02:15:17.416Z,9.90
2018-04-19T02:16:17.414Z,11.00
2018-04-19T02:17:17.413Z,10.50
2018-04-19T02:18:17.412Z,10.30
2018-04-19T02:19:17.407Z,10.40
2018-04-19T02:20:17.410Z,9.40
2018-04-19T02:21:17.414Z,10.60
2018-04-19T02:22:17.408Z,8.80
2018-04-19T02:23:17.403Z,10.10
2018-04-19T02:24:17.401Z,9.60
2018-04-19T02:25:17.402Z,10.30
2018-04-19T02:26:17.399Z,10.50
2018-04-19T02:27:17.397Z,10.60
2018-04-19T02:28:17.396Z,10.70
2018-04-19T02:29:17.396Z,9.70
2018-04-19T02:30:17.398Z,9.90
2018-04-19T02:31:17.398Z,10.60
2018-04-19T02:32:17.392Z,10.40
2018-04-19T02:33:17.391Z,11.20
2018-04-19T02:34:17.393Z,11.40
2018-04-19T02:35:17.393Z,11.30
2018-04-19T02:36:17.386Z,11.20
2018-04-19T02:37:17.386Z,11.50
2018-04-19T02:38:17.388Z,10.50
2018-04-19T02:39:17.384Z,10.30
2018-04-19T02:40:17.384Z,11.00
2018-04-19T02:41:17.382Z,10.80
2018-04-19T02:42:17.380Z,14.10
2018-04-19T02:43:17.380Z,11.00
2018-04-19T02:44:17.377Z,10.70
2018-04-19T02:45:17.377Z,11.20
2018-04-19T02:46:17.374Z,11.80
2018-04-19T02:47:17.373Z,9.90
2018-04-19T02:48:17.376Z,16.70
2018-04-19T02:49:17.376Z,13.40
2018-04-19T02:50:17.371Z,11.50
2018-04-19T02:51:17.367Z,11.10
2018-04-19T02:52:17.375Z,11.60
2018-04-19T02:53:17.371Z,11.20
2018-04-19T02:54:17.365Z,10.10
2018-04-19T02:55:17.365Z,11.00
2018-04-19T02:56:17.363Z,10.10
2018-04-19T02:57:17.361Z,9.90
2018-04-19T02:58:17.359Z,10.90
2018-04-19T02:59:17.359Z,12.80
2018-04-19T03:00:17.357Z,10.80
2018-04-19T03:01:17.356Z,10.00
2018-04-19T03:02:17.358Z,10.20
2018-04-19T03:03:17.356Z,10.50
2018-04-19T03:04:17.351Z,9.40
2018-04-19T03:05:17.350Z,10.70
2018-04-19T03:06:17.351Z,10.40
2018-04-19T03:07:17.351Z,10.70
2018-04-19T03:08:17.351Z,11.40
2018-04-19T03:09:17.344Z,14.40
2018-04-19T03:10:17.342Z,10.30
2018-04-19T03:11:17.342Z,13.60
2018-04-19T03:12:17.340Z,10.30
2018-04-19T03:13:17.339Z,11.80
2018-04-19T03:14:17.340Z,11.40
2018-04-19T03:15:17.345Z,9.90
2018-04-19T03:16:17.333Z,10.90
2018-04-19T03:17:17.331Z,11.80
2018-04-19T03:18:17.330Z,11.00
2018-04-19T03:19:17.328Z,12.90
2018-04-19T03:20:17.327Z,12.50
2018-04-19T03:21:17.325Z,10.90
2018-04-19T03:22:17.324Z,11.90
2018-04-19T03:23:17.322Z,11.00
2018-04-19T03:24:17.320Z,12.30
2018-04-19T03:25:17.321Z,10.00
2018-04-19T03:26:17.320Z,11.60
2018-04-19T03:27:17.318Z,10.20
2018-04-19T03:28:17.314Z,12.00
2018-04-19T03:29:17.311Z,11.00
2018-04-19T03:30:17.313Z,11.10
2018-04-19T03:31:17.307Z,10.50
2018-04-19T03:32:17.309Z,11.50
2018-04-19T03:33:17.307Z,12.60
2018-04-19T03:34:17.302Z,12.50
2018-04-19T03:35:17.299Z,15.70
2018-04-19T03:36:17.298Z,12.20
2018-04-19T03:37:17.296Z,12.40
2018-04-19T03:38:17.294Z,12.70
2018-04-19T03:39:17.291Z,12.30
2018-04-19T03:40:17.290Z,12.30
2018-04-19T03:41:17.288Z,12.70
2018-04-19T03:42:17.284Z,14.50
2018-04-19T03:43:17.283Z,11.70
2018-04-19T03:44:17.287Z,11.70
2018-04-19T03:45:17.283Z,12.80
2018-04-19T03:46:17.280Z,14.00
2018-04-19T03:47:17.278Z,12.90
2018-04-19T03:48:17.272Z,11.10
2018-04-19T03:49:17.270Z,11.60
2018-04-19T03:50:17.266Z,12.50
2018-04-19T03:51:17.269Z,12.00
2018-04-19T03:52:17.264Z,12.50
2018-04-19T03:53:17.262Z,12.40
2018-04-19T03:54:17.258Z,13.50
2018-04-19T03:55:17.257Z,12.70
2018-04-19T03:56:17.253Z,13.20
2018-04-19T03:57:17.251Z,11.60
2018-04-19T03:58:17.252Z,12.50
2018-04-19T03:59:17.251Z,12.90
2018-04-19T04:00:17.244Z,13.30
2018-04-19T04:01:17.268Z,14.60
2018-04-19T04:02:17.252Z,13.20
2018-04-19T04:03:17.237Z,12.80
2018-04-19T04:04:17.240Z,13.90
2018-04-19T04:05:17.236Z,13.20
2018-04-19T04:06:17.231Z,13.80
2018-04-19T04:07:17.229Z,13.30
2018-04-19T04:08:17.227Z,11.10
2018-04-19T04:09:17.225Z,13.20
2018-04-19T04:10:17.225Z,10.70
2018-04-19T04:11:17.219Z,11.20
2018-04-19T04:12:17.217Z,11.60
2018-04-19T04:13:17.214Z,11.30
2018-04-19T04:14:17.213Z,12.50
2018-04-19T04:15:17.210Z,11.50
2018-04-19T04:16:17.214Z,13.10
2018-04-19T04:17:17.208Z,15.50
2018-04-19T04:18:17.205Z,13.80
2018-04-19T04:19:17.202Z,11.70
2018-04-19T04:20:17.198Z,11.50
2018-04-19T04:21:17.194Z,12.70
2018-04-19T04:22:17.192Z,11.40
2018-04-19T04:23:17.190Z,13.50
2018-04-19T04:24:17.188Z,12.80
2018-04-19T04:25:17.185Z,12.30
2018-04-19T04:26:17.182Z,15.40
2018-04-19T04:27:17.179Z,13.20
2018-04-19T04:28:17.180Z,12.30
2018-04-19T04:29:17.175Z,12.60
2018-04-19T04:30:17.177Z,14.20
2018-04-19T04:31:17.191Z,12.30
2018-04-19T04:32:17.172Z,13.80
2018-04-19T04:33:17.164Z,12.40
2018-04-19T04:34:17.161Z,12.40
2018-04-19T04:35:17.184Z,12.10
2018-04-19T04:36:17.163Z,13.00
2018-04-19T04:37:17.162Z,11.50
2018-04-19T04:38:17.151Z,10.60
2018-04-19T04:39:17.155Z,15.80
2018-04-19T04:40:17.148Z,12.20
2018-04-19T04:41:17.143Z,11.80
2018-04-19T04:42:17.140Z,12.00
2018-04-19T04:43:17.137Z,11.90
2018-04-19T04:44:17.135Z,11.30
2018-04-19T04:45:17.137Z,12.70
2018-04-19T04:46:17.128Z,14.20
2018-04-19T04:47:17.126Z,13.50
2018-04-19T04:48:17.127Z,11.60
2018-04-19T04:49:17.125Z,12.90
2018-04-19T04:50:17.121Z,13.30
2018-04-19T04:51:17.119Z,13.20
2018-04-19T04:52:17.113Z,13.80
2018-04-19T04:53:17.110Z,14.30
2018-04-19T04:54:17.106Z,12.60
2018-04-19T04:55:17.106Z,13.60
2018-04-19T04:56:17.103Z,13.50
2018-04-19T04:57:17.099Z,13.30
2018-04-19T04:58:17.097Z,13.30
2018-04-19T04:59:17.093Z,13.20
2018-04-19T05:00:17.092Z,13.50
2018-04-19T05:01:17.088Z,13.40
2018-04-19T05:02:17.089Z,14.10
2018-04-19T05:03:17.087Z,12.70
2018-04-19T05:04:17.079Z,13.60
2018-04-19T05:05:17.078Z,14.00
2018-04-19T05:06:17.073Z,17.70
2018-04-19T05:07:17.072Z,39.90
2018-04-19T05:08:17.073Z,28.90
2018-04-19T05:09:17.071Z,26.10
2018-04-19T05:10:17.064Z,30.20
2018-04-19T05:11:17.062Z,30.90
2018-04-19T05:12:17.060Z,29.00
2018-04-19T05:13:17.060Z,27.80
2018-04-19T05:14:17.057Z,28.20
2018-04-19T05:15:17.054Z,24.30
2018-04-19T05:16:17.057Z,27.70
2018-04-19T05:17:17.052Z,23.90
2018-04-19T05:18:17.050Z,25.80
2018-04-19T05:19:17.049Z,25.10
2018-04-19T05:20:17.104Z,24.30
2018-04-19T05:21:17.051Z,24.80
2018-04-19T05:22:17.046Z,24.60
2018-04-19T05:23:17.044Z,24.40
2018-04-19T05:24:17.049Z,23.30
2018-04-19T05:25:17.045Z,24.40
2018-04-19T05:26:17.063Z,25.10
2018-04-19T05:27:17.044Z,1999.90
2018-04-19T05:28:17.048Z,1999.90
2018-04-19T05:29:17.049Z,1999.90
2018-04-19T05:30:17.044Z,1999.90
2018-04-19T05:31:17.053Z,1999.90
2018-04-19T05:32:17.053Z,190.30
2018-04-19T05:33:17.052Z,241.90
2018-04-19T05:34:17.051Z,402.20
2018-04-19T05:35:17.051Z,366.70
2018-04-19T05:36:17.052Z,243.60
2018-04-19T05:37:17.053Z,269.50
2018-04-19T05:38:17.057Z,260.60
2018-04-19T05:39:17.056Z,80.80
2018-04-19T05:40:17.059Z,25.50
2018-04-19T05:41:17.062Z,16.30
2018-04-19T05:42:17.067Z,14.50
2018-04-19T05:43:17.071Z,14.60
2018-04-19T05:44:17.067Z,14.20
2018-04-19T05:45:17.071Z,14.30
2018-04-19T05:46:17.079Z,14.60
2018-04-19T05:47:17.081Z,14.20
2018-04-19T05:48:17.080Z,13.50
2018-04-19T05:49:17.083Z,14.00
2018-04-19T05:50:17.087Z,14.50
2018-04-19T05:51:17.089Z,16.40
2018-04-19T05:52:17.093Z,13.50
2018-04-19T05:53:17.097Z,13.90
2018-04-19T05:54:17.101Z,16.50
2018-04-19T05:55:17.106Z,15.40
2018-04-19T05:56:17.113Z,15.30
2018-04-19T05:57:17.114Z,14.50
2018-04-19T05:58:17.118Z,14.90
2018-04-19T05:59:17.123Z,14.60
2018-04-19T06:00:17.136Z,15.10
2018-04-19T06:01:17.136Z,14.50
2018-04-19T06:02:17.145Z,12.90
2018-04-19T06:03:17.147Z,12.50
2018-04-19T06:04:17.153Z,11.90
2018-04-19T06:05:17.157Z,12.50
2018-04-19T06:06:17.157Z,11.70
2018-04-19T06:07:17.164Z,12.00
2018-04-19T06:08:17.171Z,11.10
2018-04-19T06:09:17.175Z,13.50
2018-04-19T06:10:17.180Z,11.20
2018-04-19T06:11:17.187Z,11.70
2018-04-19T06:12:17.195Z,10.20
2018-04-19T06:13:17.199Z,9.80
2018-04-19T06:14:17.208Z,12.20
2018-04-19T06:15:17.237Z,10.50
2018-04-19T06:16:17.220Z,10.80
2018-04-19T06:17:17.231Z,10.10
2018-04-19T06:18:17.238Z,9.80
2018-04-19T06:19:17.245Z,9.90
2018-04-19T06:20:17.253Z,10.10
2018-04-19T06:21:17.255Z,9.60
2018-04-19T06:22:17.262Z,9.50
2018-04-19T06:23:17.269Z,9.60
2018-04-19T06:24:17.278Z,13.00
2018-04-19T06:25:17.288Z,11.30
2018-04-19T06:26:17.296Z,9.30
2018-04-19T06:27:17.304Z,8.80
2018-04-19T06:28:17.309Z,9.10
2018-04-19T06:29:17.318Z,10.30
2018-04-19T06:30:17.381Z,10.10
2018-04-19T06:31:17.333Z,8.40
2018-04-19T06:32:17.342Z,8.70
2018-04-19T06:33:17.351Z,8.60
2018-04-19T06:34:17.359Z,9.20
2018-04-19T06:35:17.369Z,9.50
2018-04-19T06:36:17.378Z,8.80
2018-04-19T06:37:17.388Z,7.20
2018-04-19T06:38:17.400Z,9.70
2018-04-19T06:39:17.410Z,8.20
2018-04-19T06:40:17.416Z,7.80
2018-04-19T06:41:17.426Z,6.50
2018-04-19T06:42:17.436Z,7.60
2018-04-19T06:43:17.446Z,8.00
2018-04-19T06:44:17.462Z,7.40
2018-04-19T06:45:17.471Z,7.50
2018-04-19T06:46:17.477Z,7.40
2018-04-19T06:47:17.488Z,10.50
2018-04-19T06:48:17.499Z,7.20
2018-04-19T06:49:17.511Z,7.90
2018-04-19T06:50:17.526Z,7.40
2018-04-19T06:51:17.544Z,7.80
2018-04-19T06:52:17.543Z,7.20
2018-04-19T06:53:17.556Z,7.20
2018-04-19T06:54:17.565Z,7.70
2018-04-19T06:55:17.728Z,7.60
2018-04-19T06:56:17.594Z,7.50
2018-04-19T06:57:17.605Z,7.20
2018-04-19T06:58:17.620Z,7.50
2018-04-19T06:59:17.628Z,8.00
2018-04-19T07:00:17.642Z,7.60
2018-04-19T07:01:17.650Z,8.10
2018-04-19T07:02:17.660Z,9.50
2018-04-19T07:03:17.672Z,8.70
2018-04-19T07:04:17.686Z,7.00
2018-04-19T07:05:17.698Z,7.10
2018-04-19T07:06:17.717Z,7.50
2018-04-19T07:07:17.723Z,8.00
2018-04-19T07:08:17.736Z,7.90
2018-04-19T07:09:17.748Z,9.80
2018-04-19T07:10:17.764Z,8.20
2018-04-19T07:11:17.777Z,7.90
2018-04-19T07:12:17.787Z,7.60
2018-04-19T07:13:17.801Z,6.90
2018-04-19T07:14:17.812Z,7.30
2018-04-19T07:15:17.827Z,6.70
2018-04-19T07:16:17.844Z,7.00
2018-04-19T07:17:17.857Z,7.80
2018-04-19T07:18:17.866Z,7.30
2018-04-19T07:19:17.880Z,7.90
2018-04-19T07:20:17.897Z,7.90
2018-04-19T07:21:17.907Z,7.20
2018-04-19T07:22:17.921Z,6.20
2018-04-19T07:23:17.934Z,6.40
2018-04-19T07:24:17.948Z,6.20
2018-04-19T07:25:17.963Z,6.20
2018-04-19T07:26:17.976Z,6.20
2018-04-19T07:27:17.991Z,6.40
2018-04-19T07:28:18.008Z,6.00
2018-04-19T07:29:18.023Z,6.10
2018-04-19T07:30:18.032Z,7.50
2018-04-19T07:31:18.048Z,9.00
2018-04-19T07:32:18.083Z,7.80
2018-04-19T07:33:18.078Z,6.10
2018-04-19T07:34:18.092Z,5.30
2018-04-19T07:35:18.104Z,5.60
2018-04-19T07:36:18.125Z,5.50
2018-04-19T07:37:18.137Z,7.70
2018-04-19T07:38:18.147Z,5.00
2018-04-19T07:39:18.162Z,5.00
2018-04-19T07:40:18.184Z,5.20
2018-04-19T07:41:18.196Z,5.10
2018-04-19T07:42:18.206Z,7.90
2018-04-19T07:43:18.222Z,5.20
2018-04-19T07:44:18.245Z,6.50
2018-04-19T07:45:18.252Z,4.70
2018-04-19T07:46:18.267Z,5.00
2018-04-19T07:47:18.287Z,4.50
2018-04-19T07:48:18.299Z,5.30
2018-04-19T07:49:18.313Z,7.40
2018-04-19T07:50:18.332Z,5.10
2018-04-19T07:51:18.348Z,5.10
2018-04-19T07:52:18.360Z,6.00
2018-04-19T07:53:18.376Z,4.90
2018-04-19T07:54:18.395Z,5.60
2018-04-19T07:55:18.410Z,4.40
2018-04-19T07:56:18.422Z,4.70
2018-04-19T07:57:18.439Z,5.20
2018-04-19T07:58:18.456Z,4.80
2018-04-19T07:59:18.472Z,4.70
2018-04-19T08:00:18.490Z,5.30
2018-04-19T08:01:18.504Z,5.40
2018-04-19T08:02:18.521Z,4.80
2018-04-19T08:03:18.537Z,7.70
2018-04-19T08:04:18.553Z,5.10
2018-04-19T08:05:18.622Z,4.80
2018-04-19T08:06:18.584Z,4.90
2018-04-19T08:07:18.600Z,4.80
2018-04-19T08:08:18.621Z,4.70
2018-04-19T08:09:18.639Z,6.10
2018-04-19T08:10:18.650Z,8.00
2018-04-19T08:11:18.729Z,4.90
2018-04-19T08:12:18.686Z,5.10
2018-04-19T08:13:18.703Z,4.90
2018-04-19T08:14:18.716Z,4.70
2018-04-19T08:15:18.732Z,7.10
2018-04-19T08:16:18.749Z,4.80
2018-04-19T08:17:18.770Z,5.00
2018-04-19T08:18:18.783Z,4.30
2018-04-19T08:19:18.798Z,4.00
2018-04-19T08:20:18.817Z,6.80
2018-04-19T08:21:18.833Z,5.30
2018-04-19T08:22:18.852Z,4.20
2018-04-19T08:23:18.873Z,5.00
2018-04-19T08:24:18.884Z,4.50
2018-04-19T08:25:18.902Z,5.90
2018-04-19T08:26:18.922Z,3.80
2018-04-19T08:27:18.939Z,3.20
2018-04-19T08:28:18.956Z,3.60
2018-04-19T08:29:18.970Z,4.10
2018-04-19T08:30:18.988Z,4.40
2018-04-19T08:31:19.004Z,4.00
2018-04-19T08:32:19.023Z,4.20
2018-04-19T08:33:19.041Z,3.80
2018-04-19T08:34:19.057Z,3.70
2018-04-19T08:35:19.076Z,3.90
2018-04-19T08:36:19.097Z,5.80
2018-04-19T08:37:19.115Z,4.60
2018-04-19T08:38:19.128Z,3.30
2018-04-19T08:39:19.148Z,4.10
2018-04-19T08:40:19.165Z,4.10
2018-04-19T08:41:19.183Z,4.60
2018-04-19T08:42:19.201Z,5.00
2018-04-19T08:43:19.219Z,4.20
2018-04-19T08:44:19.236Z,4.40
2018-04-19T08:45:19.255Z,4.00
2018-04-19T08:46:19.277Z,4.20
2018-04-19T08:47:19.292Z,4.10
2018-04-19T08:48:19.313Z,4.80
2018-04-19T08:49:19.334Z,4.50
2018-04-19T08:50:19.368Z,6.20
2018-04-19T08:51:19.369Z,5.20
2018-04-19T08:52:19.383Z,4.40
2018-04-19T08:53:19.402Z,4.70
2018-04-19T08:54:19.424Z,6.40
2018-04-19T08:55:19.440Z,3.90
2018-04-19T08:56:19.459Z,4.80
2018-04-19T08:57:19.476Z,5.10
2018-04-19T08:58:19.494Z,4.40
2018-04-19T08:59:19.514Z,4.30
2018-04-19T09:00:19.531Z,4.70
2018-04-19T09:01:19.551Z,3.90
2018-04-19T09:02:19.577Z,6.50
2018-04-19T09:03:19.597Z,4.20
2018-04-19T09:04:19.606Z,3.90
2018-04-19T09:05:19.626Z,3.80
2018-04-19T09:06:19.641Z,3.70
2018-04-19T09:07:19.661Z,4.70
2018-04-19T09:08:19.683Z,8.90
2018-04-19T09:09:19.701Z,3.50
2018-04-19T09:10:19.715Z,5.60
2018-04-19T09:11:19.736Z,3.40
2018-04-19T09:12:19.753Z,3.50
2018-04-19T09:13:19.772Z,4.30
2018-04-19T09:14:19.789Z,3.80
2018-04-19T09:15:19.813Z,3.50
2018-04-19T09:16:19.827Z,4.90
2018-04-19T09:17:19.848Z,3.50
2018-04-19T09:18:19.865Z,3.60
2018-04-19T09:19:19.884Z,3.60
2018-04-19T09:20:19.908Z,3.60
2018-04-19T09:21:19.932Z,3.50
2018-04-19T09:22:19.947Z,3.50
2018-04-19T09:23:19.966Z,4.20
2018-04-19T09:24:19.983Z,4.90
2018-04-19T09:25:20.004Z,3.50
2018-04-19T09:26:20.024Z,4.30
2018-04-19T09:27:20.044Z,3.50
2018-04-19T09:28:20.064Z,3.70
2018-04-19T09:29:20.085Z,3.20
2018-04-19T09:30:20.106Z,3.70
2018-04-19T09:31:20.126Z,3.50
2018-04-19T09:32:20.148Z,3.50
2018-04-19T09:33:20.169Z,3.50
2018-04-19T09:34:20.194Z,3.10
2018-04-19T09:35:20.216Z,3.20
2018-04-19T09:36:20.233Z,3.30
2018-04-19T09:37:20.255Z,3.90
2018-04-19T09:38:20.276Z,4.00
2018-04-19T09:39:20.300Z,3.60
2018-04-19T09:40:20.319Z,4.10
2018-04-19T09:41:20.340Z,3.70
2018-04-19T09:42:20.367Z,3.60
2018-04-19T09:43:20.390Z,3.70
2018-04-19T09:44:20.408Z,3.60
2018-04-19T09:45:20.427Z,3.80
2018-04-19T09:46:20.452Z,3.60
2018-04-19T09:47:20.473Z,11.30
2018-04-19T09:48:20.491Z,3.60
2018-04-19T09:49:20.513Z,2.80
2018-04-19T09:50:20.535Z,4.50
2018-04-19T09:51:20.556Z,4.10
2018-04-19T09:52:20.584Z,3.30
2018-04-19T09:53:20.600Z,4.20
2018-04-19T09:54:20.622Z,3.20
2018-04-19T09:55:20.644Z,3.10
2018-04-19T09:56:20.664Z,3.10
2018-04-19T09:57:20.687Z,3.00
2018-04-19T09:58:20.708Z,3.50
2018-04-19T09:59:20.730Z,4.10
2018-04-19T10:00:20.755Z,3.40
2018-04-19T10:01:20.778Z,4.00
2018-04-19T10:02:20.848Z,4.30
2018-04-19T10:03:20.815Z,5.20
2018-04-19T10:04:20.840Z,5.10
2018-04-19T10:05:20.863Z,5.50
2018-04-19T10:06:20.877Z,10.60
2018-04-19T10:07:20.900Z,3.40
2018-04-19T10:08:20.921Z,4.20
2018-04-19T10:09:20.940Z,4.50
2018-04-19T10:10:20.962Z,4.60
2018-04-19T10:11:20.981Z,4.60
2018-04-19T10:12:21.002Z,4.10
2018-04-19T10:13:21.023Z,4.60
2018-04-19T10:14:21.051Z,4.40
2018-04-19T10:15:21.066Z,5.00
2018-04-19T10:16:21.084Z,4.60
2018-04-19T10:17:21.107Z,5.00
2018-04-19T10:18:21.127Z,4.60
2018-04-19T10:19:21.149Z,4.50
2018-04-19T10:20:21.165Z,4.60
2018-04-19T10:21:21.270Z,4.10
2018-04-19T10:22:21.204Z,4.30
2018-04-19T10:23:21.226Z,4.90
2018-04-19T10:24:21.245Z,4.20
2018-04-19T10:25:21.267Z,5.20
2018-04-19T10:26:21.284Z,5.90
2018-04-19T10:27:21.308Z,5.40
2018-04-19T10:28:21.325Z,5.60
2018-04-19T10:29:21.345Z,5.80
2018-04-19T10:30:21.365Z,5.80
2018-04-19T10:31:21.385Z,5.70
2018-04-19T10:32:21.409Z,6.40
2018-04-19T10:33:21.430Z,6.60
2018-04-19T10:34:21.444Z,6.80
2018-04-19T10:35:21.465Z,5.90
2018-04-19T10:36:21.489Z,6.70
2018-04-19T10:37:21.511Z,5.30
2018-04-19T10:38:21.524Z,5.60
2018-04-19T10:39:21.544Z,5.40
2018-04-19T10:40:21.566Z,7.50
2018-04-19T10:41:21.583Z,7.80
2018-04-19T10:42:21.603Z,5.10
2018-04-19T10:43:21.622Z,6.60
2018-04-19T10:44:21.645Z,8.90
2018-04-19T10:45:21.665Z,6.60
2018-04-19T10:46:21.681Z,6.70
2018-04-19T10:47:21.700Z,7.10
2018-04-19T10:48:21.723Z,6.80
2018-04-19T10:49:21.740Z,7.10
2018-04-19T10:50:21.761Z,7.70
2018-04-19T10:51:21.783Z,7.60
2018-04-19T10:52:21.797Z,7.40
2018-04-19T10:53:21.817Z,8.30
2018-04-19T10:54:21.835Z,7.60
2018-04-19T10:55:21.852Z,7.50
2018-04-19T10:56:21.875Z,7.80
2018-04-19T10:57:21.896Z,7.40
2018-04-19T10:58:21.912Z,8.00
2018-04-19T10:59:21.930Z,7.90
2018-04-19T11:00:21.946Z,8.50
2018-04-19T11:01:21.965Z,7.80
2018-04-19T11:02:21.981Z,7.20
2018-04-19T11:03:21.999Z,8.80
2018-04-19T11:04:22.017Z,8.20
2018-04-19T11:05:22.036Z,8.60
2018-04-19T11:06:22.052Z,8.20
2018-04-19T11:07:22.069Z,7.80
2018-04-19T11:08:22.088Z,7.50
2018-04-19T11:09:22.105Z,7.40
2018-04-19T11:10:22.126Z,7.90
2018-04-19T11:11:22.143Z,8.00
2018-04-19T11:12:22.157Z,8.90
2018-04-19T11:13:22.174Z,8.40
2018-04-19T11:14:22.191Z,7.90
2018-04-19T11:15:22.207Z,8.60
2018-04-19T11:16:22.230Z,9.20
2018-04-19T11:17:22.246Z,8.40
2018-04-19T11:18:22.259Z,8.70
2018-04-19T11:19:22.276Z,9.50
2018-04-19T11:20:22.295Z,10.20
2018-04-19T11:21:22.310Z,10.70
2018-04-19T11:22:22.327Z,10.30
2018-04-19T11:23:22.346Z,9.90
2018-04-19T11:24:22.361Z,11.20
2018-04-19T11:25:22.381Z,11.50
2018-04-19T11:26:22.394Z,10.20
2018-04-19T11:27:22.409Z,9.90
2018-04-19T11:28:22.428Z,11.30
2018-04-19T11:29:22.445Z,10.80
2018-04-19T11:30:22.459Z,10.60
2018-04-19T11:31:22.474Z,10.60
2018-04-19T11:32:22.485Z,10.40
2018-04-19T11:33:22.503Z,9.20
2018-04-19T11:34:22.516Z,9.50
2018-04-19T11:35:22.528Z,8.70
2018-04-19T11:36:22.542Z,9.10
2018-04-19T11:37:22.556Z,9.10
2018-04-19T11:38:22.568Z,9.60
2018-04-19T11:39:22.581Z,8.90
2018-04-19T11:40:22.594Z,9.80
2018-04-19T11:41:22.607Z,8.70
2018-04-19T11:42:22.620Z,8.90
2018-04-19T11:43:22.632Z,9.50
2018-04-19T11:44:22.640Z,8.40
2018-04-19T11:45:22.656Z,9.00
2018-04-19T11:46:22.662Z,8.20
2018-04-19T11:47:22.679Z,8.60
2018-04-19T11:48:22.685Z,9.20
2018-04-19T11:49:22.695Z,9.30
2018-04-19T11:50:22.708Z,8.70
2018-04-19T11:51:22.718Z,10.10
2018-04-19T11:52:22.725Z,10.10
2018-04-19T11:53:22.734Z,10.60
2018-04-19T11:54:22.748Z,10.20
2018-04-19T11:55:22.757Z,10.60
2018-04-19T11:56:22.763Z,10.70
2018-04-19T11:57:22.773Z,10.70
2018-04-19T11:58:22.781Z,10.80
2018-04-19T11:59:22.792Z,10.30
2018-04-19T12:00:22.801Z,10.50
2018-04-19T12:01:22.810Z,10.30
2018-04-19T12:02:22.819Z,10.40
2018-04-19T12:03:22.827Z,10.60
2018-04-19T12:04:22.837Z,10.20
2018-04-19T12:05:22.846Z,9.80
2018-04-19T12:06:22.853Z,10.60
2018-04-19T12:07:22.862Z,10.40
2018-04-19T12:08:22.877Z,10.80
2018-04-19T12:09:22.886Z,10.10
2018-04-19T12:10:22.888Z,10.40
2018-04-19T12:11:22.897Z,11.30
2018-04-19T12:12:22.908Z,11.80
2018-04-19T12:13:22.918Z,11.40
2018-04-19T12:14:22.922Z,11.10
2018-04-19T12:15:22.928Z,10.80
2018-04-19T12:16:22.936Z,11.50
2018-04-19T12:17:22.945Z,9.90
2018-04-19T12:18:22.951Z,10.60
2018-04-19T12:19:22.960Z,10.60
2018-04-19T12:20:22.968Z,9.80
2018-04-19T12:21:22.976Z,9.90
2018-04-19T12:22:22.985Z,10.70
2018-04-19T12:23:22.993Z,9.90
2018-04-19T12:24:22.999Z,10.40
2018-04-19T12:25:23.006Z,10.50
2018-04-19T12:26:23.017Z,10.60
2018-04-19T12:27:23.024Z,10.50
2018-04-19T12:28:23.028Z,10.20
2018-04-19T12:29:23.036Z,11.90
2018-04-19T12:30:23.042Z,11.70
2018-04-19T12:31:23.050Z,11.90
2018-04-19T12:32:23.062Z,11.70
2018-04-19T12:33:23.069Z,10.70
2018-04-19T12:34:23.072Z,10.20
2018-04-19T12:35:23.081Z,10.90
2018-04-19T12:36:23.089Z,10.60
2018-04-19T12:37:23.096Z,10.10
2018-04-19T12:38:23.101Z,10.10
2018-04-19T12:39:23.109Z,9.60
2018-04-19T12:40:23.120Z,9.90
2018-04-19T12:41:23.128Z,10.00
2018-04-19T12:42:23.131Z,10.60
2018-04-19T12:43:23.166Z,10.10
2018-04-19T12:44:23.151Z,10.30
2018-04-19T12:45:23.157Z,11.80
2018-04-19T12:46:23.160Z,10.40
2018-04-19T12:47:23.184Z,10.20
2018-04-19T12:48:23.186Z,10.10
2018-04-19T12:49:23.198Z,9.70
2018-04-19T12:50:23.211Z,10.00
2018-04-19T12:51:23.210Z,10.30
2018-04-19T12:52:23.203Z,9.60
2018-04-19T12:53:23.209Z,9.50
2018-04-19T12:54:23.219Z,9.20
2018-04-19T12:55:23.226Z,9.00
2018-04-19T12:56:23.230Z,8.30
2018-04-19T12:57:23.237Z,9.00
2018-04-19T12:58:23.247Z,8.70
2018-04-19T12:59:23.254Z,9.20
2018-04-19T13:00:23.256Z,9.40
2018-04-19T13:01:23.265Z,10.10
2018-04-19T13:02:23.271Z,9.90
2018-04-19T13:03:23.277Z,9.60
2018-04-19T13:04:23.283Z,9.00
2018-04-19T13:05:23.291Z,9.90
2018-04-19T13:06:23.298Z,9.50
2018-04-19T13:07:23.305Z,12.20
2018-04-19T13:08:23.311Z,10.40